Time;durP1;ratioP1;P1;durP2;ratioP2;P2;SDS_P1;SDS_P2;PMS_P1;PMS_P2;Temp;Humidity;BMP_temperature;BMP_pressure;BME280_temperature;BME280_humidity;BME280_pressure;Samples;Min_cycle;Max_cycle;Signal;HPM_P1;HPM_P2
2022/07/31 00:01:35;;;;;;;10.68;10.07;;;21.60;99.90;;;;;;5040071;28;20175;-63
2022/07/31 00:04:01;;;;;;;7.20;6.80;;;21.60;99.90;;;;;;5046625;28;20180;-63
2022/07/31 00:06:26;;;;;;;9.25;8.75;;;21.60;99.90;;;;;;5031886;28;20203;-63
2022/07/31 00:08:52;;;;;;;11.30;10.50;;;21.60;99.90;;;;;;5049174;28;20193;-62
2022/07/31 00:11:17;;;;;;;9.85;9.30;;;21.50;99.90;;;;;;5037957;28;20225;-62
2022/07/31 00:13:43;;;;;;;9.82;9.23;;;21.40;99.90;;;;;;5039205;28;20647;-63
2022/07/31 00:16:09;;;;;;;8.35;7.85;;;21.50;99.90;;;;;;5048230;28;20187;-63
2022/07/31 00:18:35;;;;;;;10.48;9.77;;;21.40;99.90;;;;;;5031670;28;20180;-63
2022/07/31 00:21:01;;;;;;;10.82;10.13;;;21.40;99.90;;;;;;5047062;28;20201;-63
2022/07/31 00:23:28;;;;;;;8.05;7.45;;;21.40;99.90;;;;;;5038483;28;20218;-62
2022/07/31 00:25:53;;;;;;;6.63;6.13;;;21.40;99.90;;;;;;5039342;28;20612;-63
2022/07/31 00:28:19;;;;;;;6.83;6.23;;;21.30;99.90;;;;;;5049415;28;20183;-63
2022/07/31 00:30:44;;;;;;;7.32;6.82;;;21.30;99.90;;;;;;5045241;28;20199;-63
2022/07/31 00:33:10;;;;;;;6.10;5.65;;;21.20;99.90;;;;;;5048126;28;20325;-62
2022/07/31 00:35:36;;;;;;;6.03;5.53;;;21.20;99.90;;;;;;5038619;28;20199;-62
2022/07/31 00:38:01;;;;;;;7.07;5.57;;;21.20;99.90;;;;;;5038408;28;20637;-62
2022/07/31 00:40:27;;;;;;;5.63;5.23;;;21.10;99.90;;;;;;5048372;28;20171;-62
2022/07/31 00:42:52;;;;;;;8.15;6.93;;;21.10;99.90;;;;;;5031693;28;20183;-63
2022/07/31 00:45:18;;;;;;;7.65;7.15;;;21.00;99.90;;;;;;5046120;28;20221;-63
2022/07/31 00:47:43;;;;;;;6.75;6.07;;;21.00;99.90;;;;;;5039389;28;20249;-62
2022/07/31 00:50:10;;;;;;;7.60;6.93;;;21.00;99.90;;;;;;5037630;28;20179;-62
2022/07/31 00:52:36;;;;;;;6.20;5.57;;;21.00;99.90;;;;;;5048842;28;20289;-62
2022/07/31 00:55:02;;;;;;;7.05;6.45;;;20.90;99.90;;;;;;5030317;28;20282;-62
2022/07/31 00:57:28;;;;;;;5.90;5.60;;;20.90;99.90;;;;;;5046805;28;20210;-63
2022/07/31 00:59:53;;;;;;;5.67;5.27;;;20.90;99.90;;;;;;5039674;28;20648;-62
2022/07/31 01:02:19;;;;;;;6.07;5.67;;;20.80;99.90;;;;;;5037632;28;20175;-62
2022/07/31 01:04:44;;;;;;;6.13;5.63;;;20.80;99.90;;;;;;5046494;28;20206;-62
2022/07/31 01:07:10;;;;;;;5.60;5.20;;;20.70;99.90;;;;;;5032329;28;20207;-63
2022/07/31 01:09:36;;;;;;;5.57;5.17;;;20.70;99.90;;;;;;5047104;28;20594;-63
2022/07/31 01:12:24;;;;;;;6.40;6.00;;;20.60;99.90;;;;;;5039482;28;20199;-63
2022/07/31 01:14:54;;;;;;;6.30;5.90;;;20.60;99.90;;;;;;5040329;28;20197;-63
2022/07/31 01:17:22;;;;;;;8.73;7.87;;;20.50;99.90;;;;;;5045491;28;20175;-62
2022/07/31 01:19:49;;;;;;;6.63;6.03;;;20.50;99.90;;;;;;5031932;28;20554;-63
2022/07/31 01:22:39;;;;;;;7.90;7.30;;;20.50;99.90;;;;;;5049248;28;20175;-63
2022/07/31 01:25:27;;;;;;;7.03;6.50;;;20.40;99.90;;;;;;5031985;28;20195;-63
2022/07/31 01:28:09;;;;;;;6.30;5.77;;;20.40;99.90;;;;;;5047964;28;20206;-63
2022/07/31 01:30:55;;;;;;;6.43;5.83;;;20.30;99.90;;;;;;5035630;28;20217;-63
2022/07/31 01:33:26;;;;;;;5.80;5.15;;;20.30;99.90;;;;;;5043226;28;20199;-63
2022/07/31 01:36:01;;;;;;;6.43;5.83;;;20.30;99.90;;;;;;5041866;28;20538;-62
2022/07/31 01:38:34;;;;;;;6.10;5.43;;;20.20;99.90;;;;;;5035726;28;20225;-63
2022/07/31 01:41:06;;;;;;;6.40;5.20;;;20.20;99.90;;;;;;5049290;28;20210;-63
2022/07/31 01:43:36;;;;;;;6.03;5.53;;;20.20;99.90;;;;;;5030541;28;20175;-63
2022/07/31 01:46:03;;;;;;;5.67;5.27;;;20.20;99.90;;;;;;5047735;28;20305;-63
2022/07/31 01:48:32;;;;;;;6.03;5.53;;;20.20;99.90;;;;;;5037542;28;20203;-63
2022/07/31 01:50:59;;;;;;;5.83;5.30;;;20.20;99.90;;;;;;5031836;28;20214;-63
2022/07/31 01:53:26;;;;;;;5.77;5.30;;;20.20;99.90;;;;;;5033953;28;20203;-62
2022/07/31 01:55:54;;;;;;;5.80;5.30;;;20.20;99.90;;;;;;5050283;28;20273;-62
2022/07/31 01:58:21;;;;;;;6.63;5.60;;;20.20;99.90;;;;;;5033923;28;20700;-63
2022/07/31 02:00:49;;;;;;;6.23;5.77;;;20.10;99.90;;;;;;5048285;28;20178;-63
2022/07/31 02:03:16;;;;;;;6.33;5.20;;;20.10;99.90;;;;;;5043962;28;20183;-62
2022/07/31 02:05:43;;;;;;;5.67;5.27;;;20.10;99.90;;;;;;5039032;28;20253;-62
2022/07/31 02:08:10;;;;;;;6.37;5.90;;;20.00;99.90;;;;;;5048987;28;20180;-63
2022/07/31 02:10:37;;;;;;;6.27;5.77;;;20.00;99.90;;;;;;5053568;28;20258;-62
2022/07/31 02:13:05;;;;;;;6.43;5.93;;;20.00;99.90;;;;;;5039006;28;20210;-65
2022/07/31 02:15:31;;;;;;;7.17;5.60;;;20.00;99.90;;;;;;5046167;28;20209;-66
2022/07/31 02:17:58;;;;;;;6.33;5.77;;;20.00;99.90;;;;;;5047972;28;20330;-68
2022/07/31 02:20:25;;;;;;;7.10;5.80;;;20.00;99.90;;;;;;5037774;28;20176;-68
2022/07/31 02:22:56;;;;;;;6.60;6.13;;;20.00;99.90;;;;;;5054297;28;20193;-66
2022/07/31 02:25:21;;;;;;;7.13;6.63;;;20.00;99.90;;;;;;5035531;28;20270;-65
2022/07/31 02:27:49;;;;;;;10.63;6.43;;;19.90;99.90;;;;;;5035911;28;20672;-67
2022/07/31 02:30:15;;;;;;;7.73;7.03;;;19.90;99.90;;;;;;5039683;28;20209;-65
2022/07/31 02:32:44;;;;;;;7.90;6.13;;;19.90;99.90;;;;;;5054428;28;20195;-65
2022/07/31 02:35:11;;;;;;;6.23;5.73;;;19.90;99.90;;;;;;5054725;28;20179;-63
2022/07/31 02:37:38;;;;;;;6.27;5.67;;;19.90;99.90;;;;;;5054201;28;20182;-64
2022/07/31 02:40:05;;;;;;;14.77;6.10;;;19.90;99.90;;;;;;5039199;28;20581;-66
2022/07/31 02:42:31;;;;;;;6.13;5.63;;;19.90;99.90;;;;;;5044870;28;20183;-65
2022/07/31 02:44:57;;;;;;;6.53;5.93;;;19.90;99.90;;;;;;5047698;28;20750;-66
2022/07/31 02:47:23;;;;;;;6.07;5.60;;;19.90;99.90;;;;;;5035651;28;20558;-65
2022/07/31 02:49:50;;;;;;;6.40;5.83;;;19.90;99.90;;;;;;5054001;28;20179;-68
2022/07/31 02:52:16;;;;;;;6.27;5.77;;;19.90;99.90;;;;;;5037247;28;20214;-64
2022/07/31 02:54:43;;;;;;;6.10;5.60;;;19.90;99.90;;;;;;5045749;28;20211;-66
2022/07/31 02:57:09;;;;;;;5.90;5.50;;;19.90;99.90;;;;;;5046884;28;20186;-66
2022/07/31 02:59:38;;;;;;;5.97;5.57;;;19.90;99.90;;;;;;5042239;28;20175;-64
2022/07/31 03:02:05;;;;;;;6.33;5.80;;;20.00;99.90;;;;;;5049870;28;20667;-65
2022/07/31 03:04:31;;;;;;;6.00;5.50;;;19.90;99.90;;;;;;5036502;28;20180;-65
2022/07/31 03:06:59;;;;;;;6.17;5.30;;;20.00;99.90;;;;;;5040751;28;20193;-66
2022/07/31 03:09:25;;;;;;;7.13;6.10;;;20.00;99.90;;;;;;5042038;28;20643;-65
2022/07/31 03:11:50;;;;;;;6.33;5.93;;;20.00;99.90;;;;;;5049599;28;20262;-65
2022/07/31 03:14:17;;;;;;;6.57;5.85;;;20.00;99.90;;;;;;5034389;28;20259;-65
2022/07/31 03:16:45;;;;;;;6.80;5.83;;;20.10;99.90;;;;;;5034206;28;20739;-68
2022/07/31 03:19:12;;;;;;;6.40;5.90;;;20.00;99.90;;;;;;5049090;28;20175;-64
2022/07/31 03:21:38;;;;;;;5.85;5.30;;;20.00;99.90;;;;;;5053401;28;20190;-64
2022/07/31 03:24:04;;;;;;;7.70;6.03;;;20.10;99.90;;;;;;5047298;28;20184;-66
2022/07/31 03:26:29;;;;;;;6.63;6.03;;;20.10;99.90;;;;;;5034506;28;20204;-65
2022/07/31 03:28:55;;;;;;;6.87;5.43;;;20.20;99.90;;;;;;5053300;28;20213;-67
2022/07/31 03:31:21;;;;;;;6.27;5.10;;;20.20;99.90;;;;;;5043116;28;20254;-65
2022/07/31 03:33:46;;;;;;;7.63;5.67;;;20.30;99.90;;;;;;5044565;28;20205;-69
2022/07/31 03:36:12;;;;;;;8.40;6.70;;;20.30;99.90;;;;;;5046968;28;20192;-67
2022/07/31 03:38:38;;;;;;;5.30;4.85;;;20.30;99.90;;;;;;5034548;28;20578;-63
2022/07/31 03:41:04;;;;;;;7.30;5.47;;;20.40;99.90;;;;;;5053076;28;20529;-65
2022/07/31 03:43:31;;;;;;;9.53;5.87;;;20.40;99.90;;;;;;5036538;28;20213;-65
2022/07/31 03:46:00;;;;;;;7.83;5.80;;;20.40;99.90;;;;;;5045386;28;20211;-68
2022/07/31 03:48:28;;;;;;;7.25;5.32;;;20.30;99.90;;;;;;5045419;28;20875;-65
2022/07/31 03:50:54;;;;;;;7.67;5.73;;;20.40;99.90;;;;;;5036465;28;20182;-64
2022/07/31 03:53:21;;;;;;;8.23;5.47;;;20.40;99.90;;;;;;5052591;28;20206;-66
2022/07/31 03:55:47;;;;;;;6.07;5.47;;;20.40;99.90;;;;;;5033244;28;20207;-64
2022/07/31 03:58:13;;;;;;;5.57;5.03;;;20.40;99.90;;;;;;5045539;28;20178;-63
2022/07/31 04:00:39;;;;;;;6.70;5.37;;;20.50;99.90;;;;;;5042545;28;20183;-63
2022/07/31 04:03:07;;;;;;;5.33;5.03;;;20.50;99.90;;;;;;5035877;28;20175;-63
2022/07/31 04:05:33;;;;;;;8.23;5.70;;;20.50;99.90;;;;;;5050794;28;20203;-63
2022/07/31 04:07:59;;;;;;;8.63;5.77;;;20.50;99.90;;;;;;5050817;28;20529;-62
2022/07/31 04:10:25;;;;;;;5.70;5.40;;;20.50;99.90;;;;;;5036760;28;20271;-63
2022/07/31 04:12:50;;;;;;;6.17;5.77;;;20.50;99.90;;;;;;5041479;28;20268;-63
2022/07/31 04:15:16;;;;;;;5.25;4.93;;;20.50;99.90;;;;;;5046305;28;20685;-63
2022/07/31 04:17:42;;;;;;;5.85;5.35;;;20.60;99.90;;;;;;5032062;28;20715;-63
2022/07/31 04:20:10;;;;;;;6.43;5.00;;;20.60;99.90;;;;;;5051200;28;20258;-63
2022/07/31 04:22:35;;;;;;;6.05;5.40;;;20.70;99.90;;;;;;5035395;28;20183;-63
2022/07/31 04:25:01;;;;;;;5.45;5.10;;;20.70;99.90;;;;;;5039212;28;20229;-63
2022/07/31 04:27:27;;;;;;;5.38;4.97;;;20.70;99.90;;;;;;5038002;28;20637;-63
2022/07/31 04:29:54;;;;;;;5.00;4.60;;;20.70;99.90;;;;;;5049129;28;20547;-63
2022/07/31 04:32:20;;;;;;;5.40;5.00;;;20.70;99.90;;;;;;5031486;28;20590;-63
2022/07/31 04:34:46;;;;;;;5.00;4.60;;;20.80;99.90;;;;;;5047130;28;20871;-63
2022/07/31 04:37:11;;;;;;;4.87;4.43;;;20.80;99.90;;;;;;5039057;28;20186;-63
2022/07/31 04:39:37;;;;;;;10.23;4.77;;;20.80;99.90;;;;;;5038614;28;20624;-63
2022/07/31 04:42:03;;;;;;;4.88;4.57;;;20.80;99.90;;;;;;5048368;28;20198;-63
2022/07/31 04:44:30;;;;;;;5.43;5.13;;;20.80;99.90;;;;;;5030744;28;20179;-63
2022/07/31 04:47:04;;;;;;;5.68;5.28;;;20.80;99.90;;;;;;5049007;28;20191;-63
2022/07/31 04:49:31;;;;;;;4.65;4.32;;;20.80;99.90;;;;;;5049292;28;20192;-63
2022/07/31 04:51:57;;;;;;;6.00;5.40;;;20.90;99.90;;;;;;5041351;28;20197;-63
2022/07/31 04:54:23;;;;;;;5.13;4.45;;;20.90;99.90;;;;;;5035582;28;20183;-63
2022/07/31 04:56:49;;;;;;;4.55;4.30;;;20.90;99.90;;;;;;5050236;28;20198;-63
2022/07/31 04:59:16;;;;;;;5.87;4.37;;;20.90;99.90;;;;;;5031399;28;20180;-63
2022/07/31 05:01:43;;;;;;;4.93;4.63;;;21.00;99.90;;;;;;5046032;28;20186;-63
2022/07/31 05:04:09;;;;;;;5.13;4.83;;;21.00;99.90;;;;;;5039891;28;20250;-63
2022/07/31 05:06:46;;;;;;;4.50;4.17;;;21.00;99.90;;;;;;5038853;28;20707;-63
2022/07/31 05:09:17;;;;;;;4.77;4.47;;;21.00;99.90;;;;;;5039012;28;20183;-63
2022/07/31 05:11:44;;;;;;;5.53;4.60;;;21.00;99.90;;;;;;5031019;28;20180;-63
2022/07/31 05:14:11;;;;;;;5.13;4.68;;;21.10;99.90;;;;;;5045379;28;20194;-63
2022/07/31 05:16:37;;;;;;;5.00;4.60;;;21.20;99.90;;;;;;5044468;28;20209;-63
2022/07/31 05:19:04;;;;;;;4.93;4.53;;;21.20;99.90;;;;;;5041285;28;20548;-63
2022/07/31 05:21:30;;;;;;;5.30;5.00;;;21.40;99.90;;;;;;5035651;28;20182;-63
2022/07/31 05:23:56;;;;;;;4.85;4.55;;;21.50;99.90;;;;;;5050027;28;20183;-63
2022/07/31 05:26:22;;;;;;;5.20;4.90;;;21.60;99.90;;;;;;5031047;28;20191;-63
2022/07/31 05:28:49;;;;;;;5.43;5.13;;;21.70;99.90;;;;;;5045906;28;20566;-63
2022/07/31 05:31:17;;;;;;;5.20;4.90;;;21.80;99.90;;;;;;5040242;28;20236;-63
2022/07/31 05:33:43;;;;;;;11.75;11.18;;;21.90;99.90;;;;;;5040490;28;20737;-63
2022/07/31 05:36:09;;;;;;;6.00;5.60;;;21.90;99.90;;;;;;5053327;28;20564;-63
2022/07/31 05:38:35;;;;;;;9.52;9.02;;;22.00;99.90;;;;;;5035077;28;20168;-63
2022/07/31 05:41:01;;;;;;;6.35;5.85;;;22.00;99.90;;;;;;5036095;28;20210;-62
2022/07/31 05:43:26;;;;;;;6.47;5.88;;;22.00;99.90;;;;;;5043133;28;20230;-63
2022/07/31 05:45:53;;;;;;;8.80;8.38;;;22.00;99.90;;;;;;5051815;28;20268;-63
2022/07/31 05:48:18;;;;;;;8.32;7.72;;;22.00;99.90;;;;;;5040977;28;20647;-63
2022/07/31 05:50:45;;;;;;;5.80;5.30;;;22.20;99.90;;;;;;5055146;28;20201;-62
2022/07/31 05:53:13;;;;;;;4.95;4.65;;;22.30;99.90;;;;;;5035921;28;20241;-63
2022/07/31 05:55:40;;;;;;;4.75;4.35;;;22.40;99.90;;;;;;5040048;28;20735;-63
2022/07/31 05:58:06;;;;;;;4.18;3.83;;;22.50;99.90;;;;;;5044196;28;20232;-63
2022/07/31 06:00:32;;;;;;;6.07;5.68;;;22.60;99.90;;;;;;5043153;28;20175;-63
2022/07/31 06:03:01;;;;;;;6.88;6.47;;;22.60;99.90;;;;;;5051266;28;20632;-63
2022/07/31 06:05:28;;;;;;;7.55;4.88;;;22.60;99.90;;;;;;5047453;28;20733;-64
2022/07/31 06:07:54;;;;;;;4.70;4.15;;;22.50;99.90;;;;;;5036457;28;20668;-63
2022/07/31 06:10:20;;;;;;;4.80;4.40;;;22.50;99.90;;;;;;5041828;28;20175;-63
2022/07/31 06:12:46;;;;;;;4.13;3.90;;;22.40;99.90;;;;;;5041538;28;20206;-62
2022/07/31 06:15:12;;;;;;;4.53;4.22;;;22.40;99.90;;;;;;5036617;28;20217;-63
2022/07/31 06:17:38;;;;;;;5.30;5.00;;;22.40;99.90;;;;;;5053125;28;20206;-63
2022/07/31 06:20:05;;;;;;;5.38;4.97;;;22.40;99.90;;;;;;5034982;28;20172;-63
2022/07/31 06:22:30;;;;;;;5.70;5.20;;;22.30;99.90;;;;;;5046778;28;20197;-63
2022/07/31 06:24:56;;;;;;;5.10;4.80;;;22.30;99.90;;;;;;5043773;28;20199;-63
2022/07/31 06:27:21;;;;;;;5.03;4.05;;;22.40;99.90;;;;;;5037970;28;20186;-64
2022/07/31 06:29:47;;;;;;;8.73;6.85;;;22.40;99.90;;;;;;5053063;28;20191;-63
2022/07/31 06:32:13;;;;;;;4.57;4.30;;;22.50;99.90;;;;;;5040845;28;20606;-62
2022/07/31 06:34:40;;;;;;;5.00;4.70;;;22.60;99.90;;;;;;5053390;28;20174;-63
2022/07/31 06:37:05;;;;;;;4.90;4.60;;;22.70;99.90;;;;;;5052430;28;20175;-63
2022/07/31 06:39:31;;;;;;;5.32;4.93;;;22.80;99.90;;;;;;5048106;28;20182;-63
2022/07/31 06:41:56;;;;;;;8.88;5.32;;;23.00;99.90;;;;;;5033474;28;20206;-63
2022/07/31 06:44:22;;;;;;;6.78;4.60;;;23.00;99.90;;;;;;5051081;28;20175;-63
2022/07/31 06:46:48;;;;;;;5.60;5.15;;;22.90;99.90;;;;;;5037774;28;20298;-63
2022/07/31 06:49:14;;;;;;;5.53;4.95;;;22.90;99.90;;;;;;5043249;28;20182;-63
2022/07/31 06:51:40;;;;;;;5.25;4.28;;;23.00;99.90;;;;;;5046834;28;20176;-63
2022/07/31 06:54:08;;;;;;;4.75;4.35;;;23.00;99.90;;;;;;5033199;28;20207;-63
2022/07/31 06:56:35;;;;;;;6.05;4.43;;;23.10;99.90;;;;;;5047848;28;20257;-63
2022/07/31 06:59:01;;;;;;;4.75;4.38;;;23.10;99.90;;;;;;5048620;28;20543;-63
2022/07/31 07:01:28;;;;;;;5.10;4.80;;;23.00;99.90;;;;;;5041181;28;20577;-63
2022/07/31 07:03:54;;;;;;;4.03;3.83;;;23.00;99.90;;;;;;5039646;28;20239;-63
2022/07/31 07:06:20;;;;;;;4.32;4.03;;;23.00;99.90;;;;;;5049566;28;20202;-63
2022/07/31 07:08:45;;;;;;;5.20;4.13;;;22.90;99.90;;;;;;5032845;28;20608;-64
2022/07/31 07:11:11;;;;;;;4.78;4.47;;;22.90;99.90;;;;;;5049638;28;20503;-63
2022/07/31 07:13:37;;;;;;;5.60;5.10;;;22.70;99.90;;;;;;5039243;28;20310;-63
2022/07/31 07:16:03;;;;;;;10.27;9.70;;;22.60;99.90;;;;;;5040444;28;20202;-63
2022/07/31 07:18:29;;;;;;;12.90;12.23;;;22.60;99.90;;;;;;5035737;28;20186;-63
2022/07/31 07:20:54;;;;;;;7.10;6.55;;;22.50;99.90;;;;;;5045722;28;20183;-63
2022/07/31 07:23:20;;;;;;;6.03;5.63;;;22.50;99.90;;;;;;5033600;28;20560;-63
2022/07/31 07:25:46;;;;;;;6.10;5.80;;;22.40;99.90;;;;;;5038504;28;20207;-63
2022/07/31 07:28:12;;;;;;;4.88;4.57;;;22.30;99.90;;;;;;5041134;28;20648;-63
2022/07/31 07:30:38;;;;;;;5.05;4.60;;;22.30;99.90;;;;;;5047714;28;20190;-63
2022/07/31 07:33:04;;;;;;;5.35;3.95;;;22.20;99.90;;;;;;5032641;28;20203;-63
2022/07/31 07:35:30;;;;;;;5.00;4.70;;;22.20;99.90;;;;;;5032568;28;20204;-63
2022/07/31 07:37:56;;;;;;;6.05;5.75;;;22.10;99.90;;;;;;5046410;28;20184;-63
2022/07/31 07:40:23;;;;;;;6.00;5.65;;;22.00;99.90;;;;;;5041194;28;20186;-63
2022/07/31 07:42:48;;;;;;;6.70;6.20;;;22.10;99.90;;;;;;5037043;28;20392;-63
2022/07/31 07:45:14;;;;;;;5.80;5.50;;;22.20;99.90;;;;;;5050831;28;20237;-63
2022/07/31 07:47:40;;;;;;;5.65;5.25;;;22.30;99.90;;;;;;5035468;28;20615;-63
2022/07/31 07:50:07;;;;;;;5.32;5.03;;;22.40;99.90;;;;;;5034765;28;20282;-63
2022/07/31 07:52:34;;;;;;;5.10;4.75;;;22.50;99.90;;;;;;5042211;28;20263;-63
2022/07/31 07:55:00;;;;;;;5.00;4.70;;;22.60;99.90;;;;;;5045043;28;20208;-63
2022/07/31 07:57:25;;;;;;;5.57;4.65;;;22.70;99.90;;;;;;5032883;28;20191;-63
2022/07/31 07:59:51;;;;;;;6.57;5.90;;;22.90;99.90;;;;;;5051520;28;20187;-63
2022/07/31 08:02:17;;;;;;;5.05;4.65;;;23.10;99.90;;;;;;5035337;28;20697;-63
2022/07/31 08:04:43;;;;;;;6.60;6.18;;;23.20;99.90;;;;;;5042700;28;20734;-63
2022/07/31 08:07:09;;;;;;;5.65;5.35;;;23.40;99.90;;;;;;5043754;28;20258;-63
2022/07/31 08:09:35;;;;;;;5.25;4.95;;;24.00;99.90;;;;;;5033454;28;20180;-63
2022/07/31 08:12:02;;;;;;;4.57;4.20;;;24.70;99.90;;;;;;5051287;28;20178;-64
2022/07/31 08:14:27;;;;;;;4.30;4.05;;;25.20;99.90;;;;;;5034661;28;20666;-64
2022/07/31 08:16:54;;;;;;;4.57;4.28;;;25.30;99.90;;;;;;5043808;28;20187;-64
2022/07/31 08:19:20;;;;;;;3.63;3.33;;;25.70;99.90;;;;;;5042117;28;20194;-63
2022/07/31 08:21:45;;;;;;;4.85;3.75;;;26.30;99.90;;;;;;5034752;28;20631;-64
2022/07/31 08:24:11;;;;;;;7.93;3.78;;;27.00;99.90;;;;;;5051091;28;20198;-64
2022/07/31 08:29:22;;;;;;;3.78;3.47;;;28.70;99.90;;;;;;5046025;28;20193;-64
2022/07/31 08:31:48;;;;;;;3.88;3.60;;;28.80;99.90;;;;;;5042630;28;20189;-64
2022/07/31 08:34:13;;;;;;;4.57;4.28;;;28.90;99.90;;;;;;5044041;28;20199;-64
2022/07/31 08:36:39;;;;;;;5.43;4.07;;;28.70;99.90;;;;;;5032716;28;20223;-64
2022/07/31 08:39:05;;;;;;;3.50;3.30;;;28.10;99.90;;;;;;5045965;28;20172;-63
2022/07/31 08:41:37;;;;;;;4.47;3.28;;;27.60;99.90;;;;;;5045170;28;20182;-63
2022/07/31 08:44:04;;;;;;;3.67;3.38;;;27.00;99.90;;;;;;5037716;28;20218;-63
2022/07/31 08:46:36;;;;;;;4.53;3.85;;;26.70;99.90;;;;;;5038733;28;20210;-63
2022/07/31 08:49:03;;;;;;;5.13;3.85;;;26.50;99.90;;;;;;5046404;28;20175;-63
2022/07/31 08:51:34;;;;;;;4.00;3.70;;;26.30;99.90;;;;;;5030713;28;20186;-64
2022/07/31 08:54:04;;;;;;;4.40;4.10;;;26.20;99.90;;;;;;5030736;28;20237;-63
2022/07/31 08:56:32;;;;;;;3.40;3.20;;;26.30;99.90;;;;;;5046508;28;20190;-64
2022/07/31 08:58:57;;;;;;;5.35;4.88;;;26.60;99.90;;;;;;5039284;28;20179;-64
2022/07/31 09:01:23;;;;;;;4.70;3.80;;;26.60;99.90;;;;;;5031371;28;20346;-64
2022/07/31 09:03:49;;;;;;;3.53;3.22;;;26.40;99.90;;;;;;5032082;28;20262;-64
2022/07/31 09:06:14;;;;;;;4.65;4.25;;;26.50;99.90;;;;;;5041900;28;20198;-64
2022/07/31 09:08:40;;;;;;;4.57;4.32;;;26.50;99.90;;;;;;5045619;28;20693;-64
2022/07/31 09:11:08;;;;;;;4.20;3.85;;;26.70;99.90;;;;;;5042873;28;20221;-64
2022/07/31 09:13:34;;;;;;;4.18;3.55;;;26.70;99.90;;;;;;5042229;28;20202;-64
2022/07/31 09:16:00;;;;;;;4.15;3.55;;;27.00;99.90;;;;;;5050696;28;20243;-64
2022/07/31 09:18:26;;;;;;;3.65;3.28;;;27.20;99.90;;;;;;5034879;28;20599;-64
2022/07/31 09:21:02;;;;;;;4.03;3.60;;;27.50;99.90;;;;;;5052177;28;20179;-65
2022/07/31 09:23:28;;;;;;;5.10;3.20;;;27.70;99.90;;;;;;5039463;28;20190;-64
2022/07/31 09:26:02;;;;;;;5.07;3.85;;;28.00;99.90;;;;;;5044034;28;20199;-65
2022/07/31 09:28:33;;;;;;;3.42;3.22;;;28.00;99.90;;;;;;5048226;28;20188;-65
2022/07/31 09:30:59;;;;;;;3.75;3.40;;;27.90;99.90;;;;;;5042641;28;20182;-65
2022/07/31 09:33:28;;;;;;;4.07;3.78;;;27.90;99.90;;;;;;5046978;28;20203;-65
2022/07/31 09:35:54;;;;;;;3.65;3.35;;;27.80;99.90;;;;;;5037443;28;20203;-65
2022/07/31 09:38:19;;;;;;;3.90;3.45;;;27.60;99.90;;;;;;5046230;28;20186;-65
2022/07/31 09:40:46;;;;;;;3.65;3.45;;;27.50;99.90;;;;;;5046804;28;20183;-65
2022/07/31 09:43:23;;;;;;;3.17;2.88;;;28.00;99.90;;;;;;5050810;28;20190;-64
2022/07/31 09:45:59;;;;;;;4.97;3.05;;;28.30;99.90;;;;;;5053860;28;20214;-64
2022/07/31 09:48:25;;;;;;;3.55;3.25;;;28.10;99.90;;;;;;5054150;28;20522;-64
2022/07/31 09:51:06;;;;;;;3.38;3.10;;;28.30;99.90;;;;;;5038180;28;20183;-64
2022/07/31 09:53:49;;;;;;;3.15;2.92;;;28.30;99.90;;;;;;5035212;28;20657;-64
2022/07/31 09:56:14;;;;;;;3.60;3.20;;;28.40;99.90;;;;;;5035381;28;20199;-64
2022/07/31 09:58:41;;;;;;;3.47;3.22;;;28.50;99.90;;;;;;5038680;28;20309;-64
2022/07/31 10:01:11;;;;;;;3.10;2.88;;;28.60;99.90;;;;;;5051369;28;20185;-64
2022/07/31 10:03:38;;;;;;;4.30;2.90;;;28.80;99.90;;;;;;5033484;28;20183;-64
2022/07/31 10:06:07;;;;;;;3.30;3.10;;;29.00;99.90;;;;;;5035432;28;20304;-64
2022/07/31 10:08:35;;;;;;;2.78;2.67;;;28.80;99.90;;;;;;5043801;28;20655;-64
2022/07/31 10:11:05;;;;;;;3.30;3.10;;;28.70;99.90;;;;;;5049035;28;20216;-64
2022/07/31 10:13:37;;;;;;;3.10;2.90;;;28.60;99.90;;;;;;5041860;28;20756;-64
2022/07/31 10:16:04;;;;;;;3.97;2.85;;;28.60;99.90;;;;;;5053303;28;20210;-64
2022/07/31 10:18:36;;;;;;;3.70;3.40;;;28.50;99.90;;;;;;5052250;28;20171;-64
2022/07/31 10:21:06;;;;;;;4.43;4.03;;;28.60;99.90;;;;;;5042497;28;20170;-64
2022/07/31 10:23:34;;;;;;;3.58;3.30;;;28.60;99.90;;;;;;5040949;28;20176;-64
2022/07/31 10:26:01;;;;;;;4.00;3.58;;;28.70;99.90;;;;;;5036632;28;20237;-64
2022/07/31 10:28:31;;;;;;;4.97;3.03;;;28.60;99.90;;;;;;5053015;28;20218;-64
2022/07/31 10:30:57;;;;;;;3.60;3.35;;;28.60;99.90;;;;;;5035994;28;20657;-64
2022/07/31 10:33:23;;;;;;;3.53;3.33;;;28.50;99.90;;;;;;5038926;28;20214;-64
2022/07/31 10:36:05;;;;;;;2.92;2.75;;;28.50;99.90;;;;;;5048324;28;20208;-64
2022/07/31 10:39:10;;;;;;;4.13;3.83;;;28.50;99.90;;;;;;5046743;28;20183;-64
2022/07/31 10:41:35;;;;;;;4.22;3.88;;;28.50;99.90;;;;;;5034427;28;20282;-64
2022/07/31 10:44:26;;;;;;;4.30;3.10;;;28.60;99.90;;;;;;5042559;28;20262;-64
2022/07/31 10:46:52;;;;;;;3.17;2.95;;;29.20;99.90;;;;;;5051711;28;20244;-65
2022/07/31 10:49:18;;;;;;;3.08;2.88;;;29.70;99.90;;;;;;5049524;28;20179;-64
2022/07/31 10:51:48;;;;;;;4.35;3.20;;;29.90;99.90;;;;;;5033137;28;20187;-64
2022/07/31 10:54:14;;;;;;;3.55;3.35;;;29.90;99.90;;;;;;5051155;28;20240;-64
2022/07/31 10:56:45;;;;;;;3.45;3.25;;;29.80;99.90;;;;;;5039320;28;20510;-64
2022/07/31 10:59:11;;;;;;;3.65;3.25;;;29.70;99.90;;;;;;5041811;28;20178;-64
2022/07/31 11:01:50;;;;;;;3.92;3.58;;;29.60;99.90;;;;;;5048381;28;20195;-64
2022/07/31 11:04:29;;;;;;;3.42;3.15;;;29.60;99.90;;;;;;5033527;28;20182;-64
2022/07/31 11:06:55;;;;;;;2.90;2.70;;;29.50;99.90;;;;;;5052468;28;20604;-64
2022/07/31 11:09:22;;;;;;;3.47;3.17;;;29.90;99.90;;;;;;5034881;28;20262;-64
2022/07/31 11:11:48;;;;;;;3.22;3.03;;;30.00;99.90;;;;;;5045097;28;20178;-64
2022/07/31 11:14:13;;;;;;;3.50;3.30;;;29.90;99.90;;;;;;5043715;28;20217;-64
2022/07/31 11:16:50;;;;;;;6.80;3.00;;;29.80;99.90;;;;;;5049668;28;20264;-64
2022/07/31 11:19:16;;;;;;;4.63;3.30;;;29.80;99.90;;;;;;5032723;28;20653;-64
2022/07/31 11:21:42;;;;;;;3.10;2.80;;;30.20;99.90;;;;;;5050656;28;20196;-64
2022/07/31 11:24:18;;;;;;;2.85;2.70;;;30.40;99.90;;;;;;5038578;28;20258;-64
2022/07/31 11:26:52;;;;;;;2.95;2.78;;;30.20;99.90;;;;;;5042203;28;20210;-64
2022/07/31 11:29:27;;;;;;;3.15;2.95;;;30.10;99.90;;;;;;5045377;28;20660;-64
2022/07/31 11:31:53;;;;;;;3.20;3.00;;;29.80;99.90;;;;;;5034715;28;20212;-64
2022/07/31 11:34:19;;;;;;;3.08;2.83;;;29.70;99.90;;;;;;5040569;28;20203;-64
2022/07/31 11:36:44;;;;;;;4.00;2.80;;;29.50;99.90;;;;;;5047620;28;20207;-64
2022/07/31 11:39:13;;;;;;;3.60;3.30;;;29.60;99.90;;;;;;5036080;28;20176;-64
2022/07/31 11:41:39;;;;;;;4.00;3.00;;;29.80;99.90;;;;;;5032217;28;20175;-64
2022/07/31 11:44:04;;;;;;;3.40;3.20;;;30.00;99.90;;;;;;5033817;28;20194;-64
2022/07/31 11:46:32;;;;;;;3.03;2.83;;;30.10;99.90;;;;;;5051323;28;20225;-64
2022/07/31 11:48:59;;;;;;;3.35;3.05;;;30.00;99.90;;;;;;5043131;28;20265;-64
2022/07/31 11:51:25;;;;;;;3.42;3.13;;;29.70;99.90;;;;;;5039395;28;20593;-64
2022/07/31 11:53:53;;;;;;;3.22;3.05;;;29.70;99.90;;;;;;5038900;28;20671;-64
2022/07/31 11:56:20;;;;;;;3.15;2.95;;;29.80;99.90;;;;;;5048466;28;20221;-64
2022/07/31 11:58:50;;;;;;;3.38;3.17;;;30.10;99.90;;;;;;5031762;28;20191;-64
2022/07/31 12:01:17;;;;;;;3.30;3.05;;;30.00;99.90;;;;;;5048211;28;20217;-64
2022/07/31 12:03:43;;;;;;;3.60;3.40;;;30.50;99.90;;;;;;5044096;28;20187;-64
2022/07/31 12:06:09;;;;;;;2.88;2.67;;;30.80;99.90;;;;;;5043555;28;20210;-64
2022/07/31 12:08:35;;;;;;;3.13;2.92;;;31.00;99.90;;;;;;5036144;28;20985;-64
2022/07/31 12:11:04;;;;;;;3.30;3.00;;;31.00;99.90;;;;;;5051489;28;20210;-64
2022/07/31 12:13:31;;;;;;;4.10;3.35;;;31.40;99.90;;;;;;5032131;28;20249;-64
2022/07/31 12:15:58;;;;;;;3.00;2.80;;;31.80;99.90;;;;;;5045299;28;20202;-64
2022/07/31 12:18:25;;;;;;;2.92;2.72;;;31.70;99.90;;;;;;5041806;28;20254;-64
2022/07/31 12:21:02;;;;;;;3.03;2.72;;;31.70;99.90;;;;;;5035998;28;20179;-64
2022/07/31 12:23:41;;;;;;;3.55;3.25;;;31.50;99.90;;;;;;5049157;28;20182;-64
2022/07/31 12:26:11;;;;;;;3.05;2.83;;;31.60;99.90;;;;;;5032521;28;20210;-64
2022/07/31 12:28:37;;;;;;;3.28;3.08;;;31.50;99.90;;;;;;5049506;28;20183;-64
2022/07/31 12:31:03;;;;;;;3.38;3.08;;;31.20;99.90;;;;;;5042996;28;20345;-64
2022/07/31 12:33:41;;;;;;;3.90;3.38;;;30.80;99.90;;;;;;5041539;28;20677;-64
2022/07/31 12:36:12;;;;;;;4.50;4.20;;;30.20;99.90;;;;;;5037197;28;20591;-64
2022/07/31 12:38:37;;;;;;;4.22;3.92;;;29.90;99.90;;;;;;5049190;28;20171;-64
2022/07/31 12:41:04;;;;;;;4.07;3.78;;;29.80;99.90;;;;;;5030716;28;20225;-64
2022/07/31 12:43:30;;;;;;;4.68;3.60;;;30.00;99.90;;;;;;5046112;28;20182;-64
2022/07/31 12:45:59;;;;;;;3.50;3.30;;;30.30;99.90;;;;;;5039118;28;20260;-66
2022/07/31 12:48:26;;;;;;;4.35;3.92;;;30.30;99.90;;;;;;5039427;28;20194;-64
2022/07/31 12:50:51;;;;;;;4.22;3.85;;;30.20;99.90;;;;;;5033645;28;20573;-64